Clutch City, Texas
Current Conditions -  °F | °C
As of 5:35 PM on Thursday 18 Dec 2014 (Local Time) from KMCJ Reporting Station
Overcast Overcast  
Wind Chill: 66°   Ceiling: 1100
Heat Index: 66°   Visibility: NA
Dew Point: 63°   Wind: 7mph
Humidity: 88%   Direction: 360°N
Pressure: 30.01"   Gusts: NA
Location:  29.7594°N, 95.363°W
Report Text: KMCJ 182335Z AUTO 36006KT BKN011 OVC015 19/17 A3001 RMK AO1
Loading
Personal Weather Stations






























Interactive Weather Map New forecast layout! Learn more

10-Day Weather Forecast

Advertisements
Track Severe Weather on mobile